sensor_id;sensor_type;location;lat;lon;timestamp;P1;durP1;ratioP1;P2;durP2;ratioP2
80384;SDS011;69702;44.618;33.604;2024-03-02T00:00:20;29.87;;;15.33;;
80384;SDS011;69702;44.618;33.604;2024-03-02T00:02:48;25.30;;;13.82;;
80384;SDS011;69702;44.618;33.604;2024-03-02T00:05:19;22.70;;;13.35;;
80384;SDS011;69702;44.618;33.604;2024-03-02T00:07:46;26.33;;;13.82;;
80384;SDS011;69702;44.618;33.604;2024-03-02T00:10:20;26.27;;;14.82;;
80384;SDS011;69702;44.618;33.604;2024-03-02T00:12:57;24.97;;;13.50;;
80384;SDS011;69702;44.618;33.604;2024-03-02T00:17:56;26.08;;;13.90;;
80384;SDS011;69702;44.618;33.604;2024-03-02T00:20:22;22.20;;;12.75;;
80384;SDS011;69702;44.618;33.604;2024-03-02T00:22:49;24.42;;;13.52;;
80384;SDS011;69702;44.618;33.604;2024-03-02T00:25:16;23.07;;;12.53;;
80384;SDS011;69702;44.618;33.604;2024-03-02T00:27:47;21.05;;;11.85;;
80384;SDS011;69702;44.618;33.604;2024-03-02T00:33:06;22.38;;;10.75;;
80384;SDS011;69702;44.618;33.604;2024-03-02T00:35:33;20.45;;;11.60;;
80384;SDS011;69702;44.618;33.604;2024-03-02T00:38:03;19.57;;;11.27;;
80384;SDS011;69702;44.618;33.604;2024-03-02T00:40:30;19.55;;;10.45;;
80384;SDS011;69702;44.618;33.604;2024-03-02T00:42:56;18.90;;;10.70;;
80384;SDS011;69702;44.618;33.604;2024-03-02T00:45:23;20.90;;;10.88;;
80384;SDS011;69702;44.618;33.604;2024-03-02T00:47:50;24.20;;;12.80;;
80384;SDS011;69702;44.618;33.604;2024-03-02T00:50:17;22.08;;;13.55;;
80384;SDS011;69702;44.618;33.604;2024-03-02T00:52:43;22.25;;;12.70;;
80384;SDS011;69702;44.618;33.604;2024-03-02T00:55:09;21.95;;;12.20;;
80384;SDS011;69702;44.618;33.604;2024-03-02T00:57:35;21.08;;;12.23;;
80384;SDS011;69702;44.618;33.604;2024-03-02T01:00:02;22.40;;;12.43;;
80384;SDS011;69702;44.618;33.604;2024-03-02T01:02:30;21.90;;;11.55;;
80384;SDS011;69702;44.618;33.604;2024-03-02T01:04:56;22.10;;;12.73;;
80384;SDS011;69702;44.618;33.604;2024-03-02T01:07:22;26.80;;;14.15;;
80384;SDS011;69702;44.618;33.604;2024-03-02T01:09:48;28.58;;;14.80;;
80384;SDS011;69702;44.618;33.604;2024-03-02T01:12:14;29.30;;;15.48;;
80384;SDS011;69702;44.618;33.604;2024-03-02T01:14:40;26.33;;;14.90;;
80384;SDS011;69702;44.618;33.604;2024-03-02T01:17:07;26.65;;;14.73;;
80384;SDS011;69702;44.618;33.604;2024-03-02T01:19:33;29.25;;;14.63;;
80384;SDS011;69702;44.618;33.604;2024-03-02T01:21:59;27.05;;;14.95;;
80384;SDS011;69702;44.618;33.604;2024-03-02T01:24:25;26.33;;;14.30;;
80384;SDS011;69702;44.618;33.604;2024-03-02T01:26:51;28.25;;;14.77;;
80384;SDS011;69702;44.618;33.604;2024-03-02T01:29:18;25.45;;;14.85;;
80384;SDS011;69702;44.618;33.604;2024-03-02T01:31:45;25.90;;;14.52;;
80384;SDS011;69702;44.618;33.604;2024-03-02T01:34:12;26.02;;;14.05;;
80384;SDS011;69702;44.618;33.604;2024-03-02T01:36:38;28.75;;;14.20;;
80384;SDS011;69702;44.618;33.604;2024-03-02T01:39:04;29.23;;;13.43;;
80384;SDS011;69702;44.618;33.604;2024-03-02T01:41:34;23.55;;;13.77;;
80384;SDS011;69702;44.618;33.604;2024-03-02T01:44:00;27.52;;;12.98;;
80384;SDS011;69702;44.618;33.604;2024-03-02T01:46:26;29.70;;;14.43;;
80384;SDS011;69702;44.618;33.604;2024-03-02T01:48:52;27.43;;;14.47;;
80384;SDS011;69702;44.618;33.604;2024-03-02T01:51:18;28.52;;;15.23;;
80384;SDS011;69702;44.618;33.604;2024-03-02T01:53:45;35.67;;;15.65;;
80384;SDS011;69702;44.618;33.604;2024-03-02T01:56:11;30.08;;;15.20;;
80384;SDS011;69702;44.618;33.604;2024-03-02T01:58:37;24.58;;;13.52;;
80384;SDS011;69702;44.618;33.604;2024-03-02T02:01:03;27.70;;;13.70;;
80384;SDS011;69702;44.618;33.604;2024-03-02T02:03:29;31.50;;;14.98;;
80384;SDS011;69702;44.618;33.604;2024-03-02T02:05:56;24.88;;;13.00;;
80384;SDS011;69702;44.618;33.604;2024-03-02T02:08:22;22.63;;;12.50;;
80384;SDS011;69702;44.618;33.604;2024-03-02T02:10:48;23.33;;;13.45;;
80384;SDS011;69702;44.618;33.604;2024-03-02T02:13:14;21.33;;;12.93;;
80384;SDS011;69702;44.618;33.604;2024-03-02T02:15:40;20.95;;;12.63;;
80384;SDS011;69702;44.618;33.604;2024-03-02T02:18:07;18.30;;;11.05;;
80384;SDS011;69702;44.618;33.604;2024-03-02T02:20:33;26.23;;;12.55;;
80384;SDS011;69702;44.618;33.604;2024-03-02T02:23:03;25.58;;;14.00;;
80384;SDS011;69702;44.618;33.604;2024-03-02T02:25:30;30.03;;;14.00;;
80384;SDS011;69702;44.618;33.604;2024-03-02T02:27:57;27.75;;;14.77;;
80384;SDS011;69702;44.618;33.604;2024-03-02T02:30:27;29.90;;;15.38;;
80384;SDS011;69702;44.618;33.604;2024-03-02T02:32:54;31.10;;;14.63;;
80384;SDS011;69702;44.618;33.604;2024-03-02T02:35:20;28.83;;;15.40;;
80384;SDS011;69702;44.618;33.604;2024-03-02T02:37:46;27.93;;;14.80;;
80384;SDS011;69702;44.618;33.604;2024-03-02T02:40:13;31.70;;;14.93;;
80384;SDS011;69702;44.618;33.604;2024-03-02T02:42:39;25.15;;;13.93;;
80384;SDS011;69702;44.618;33.604;2024-03-02T02:45:06;21.98;;;13.32;;
80384;SDS011;69702;44.618;33.604;2024-03-02T02:47:32;28.35;;;14.60;;
80384;SDS011;69702;44.618;33.604;2024-03-02T02:50:04;24.37;;;13.17;;
80384;SDS011;69702;44.618;33.604;2024-03-02T02:52:35;30.35;;;13.60;;
80384;SDS011;69702;44.618;33.604;2024-03-02T02:55:05;28.40;;;13.73;;
80384;SDS011;69702;44.618;33.604;2024-03-02T02:57:36;24.60;;;13.05;;
80384;SDS011;69702;44.618;33.604;2024-03-02T03:02:39;25.73;;;12.93;;
80384;SDS011;69702;44.618;33.604;2024-03-02T03:05:07;25.98;;;13.40;;
80384;SDS011;69702;44.618;33.604;2024-03-02T03:07:34;25.55;;;14.05;;
80384;SDS011;69702;44.618;33.604;2024-03-02T03:10:02;27.15;;;14.00;;
80384;SDS011;69702;44.618;33.604;2024-03-02T03:12:30;27.90;;;14.18;;
80384;SDS011;69702;44.618;33.604;2024-03-02T03:14:57;26.13;;;13.10;;
80384;SDS011;69702;44.618;33.604;2024-03-02T03:17:23;24.20;;;13.43;;
80384;SDS011;69702;44.618;33.604;2024-03-02T03:19:49;24.65;;;14.20;;
80384;SDS011;69702;44.618;33.604;2024-03-02T03:22:16;23.40;;;12.82;;
80384;SDS011;69702;44.618;33.604;2024-03-02T03:24:42;22.85;;;13.13;;
80384;SDS011;69702;44.618;33.604;2024-03-02T03:27:09;25.13;;;12.17;;
80384;SDS011;69702;44.618;33.604;2024-03-02T03:29:37;23.85;;;12.70;;
80384;SDS011;69702;44.618;33.604;2024-03-02T03:32:03;19.65;;;12.90;;
80384;SDS011;69702;44.618;33.604;2024-03-02T03:34:33;21.27;;;11.98;;
80384;SDS011;69702;44.618;33.604;2024-03-02T03:37:00;23.23;;;13.63;;
80384;SDS011;69702;44.618;33.604;2024-03-02T03:39:26;30.10;;;14.20;;
80384;SDS011;69702;44.618;33.604;2024-03-02T03:41:52;24.80;;;13.02;;
80384;SDS011;69702;44.618;33.604;2024-03-02T03:44:18;25.20;;;14.25;;
80384;SDS011;69702;44.618;33.604;2024-03-02T03:46:44;25.30;;;13.85;;
80384;SDS011;69702;44.618;33.604;2024-03-02T03:49:10;25.17;;;13.67;;
80384;SDS011;69702;44.618;33.604;2024-03-02T03:51:36;24.10;;;13.25;;
80384;SDS011;69702;44.618;33.604;2024-03-02T03:54:02;19.85;;;11.75;;
80384;SDS011;69702;44.618;33.604;2024-03-02T03:56:28;19.42;;;10.35;;
80384;SDS011;69702;44.618;33.604;2024-03-02T03:58:54;18.80;;;10.65;;
80384;SDS011;69702;44.618;33.604;2024-03-02T04:01:21;18.43;;;10.13;;
80384;SDS011;69702;44.618;33.604;2024-03-02T04:03:48;20.15;;;11.32;;
80384;SDS011;69702;44.618;33.604;2024-03-02T04:06:14;20.95;;;11.45;;
80384;SDS011;69702;44.618;33.604;2024-03-02T04:08:42;28.48;;;13.70;;
80384;SDS011;69702;44.618;33.604;2024-03-02T04:11:08;25.50;;;13.15;;
80384;SDS011;69702;44.618;33.604;2024-03-02T04:13:34;25.23;;;12.83;;
80384;SDS011;69702;44.618;33.604;2024-03-02T04:16:00;24.65;;;12.98;;
80384;SDS011;69702;44.618;33.604;2024-03-02T04:18:26;28.20;;;13.77;;
80384;SDS011;69702;44.618;33.604;2024-03-02T04:20:52;23.95;;;13.30;;
80384;SDS011;69702;44.618;33.604;2024-03-02T04:23:18;26.37;;;14.47;;
80384;SDS011;69702;44.618;33.604;2024-03-02T04:25:44;25.02;;;14.10;;
80384;SDS011;69702;44.618;33.604;2024-03-02T04:28:10;19.88;;;12.40;;
80384;SDS011;69702;44.618;33.604;2024-03-02T04:30:38;24.40;;;13.45;;
80384;SDS011;69702;44.618;33.604;2024-03-02T04:33:04;24.42;;;13.18;;
80384;SDS011;69702;44.618;33.604;2024-03-02T04:35:33;22.57;;;12.97;;
80384;SDS011;69702;44.618;33.604;2024-03-02T04:37:58;22.60;;;13.23;;
80384;SDS011;69702;44.618;33.604;2024-03-02T04:40:25;24.67;;;13.55;;
80384;SDS011;69702;44.618;33.604;2024-03-02T04:42:51;22.92;;;13.50;;
80384;SDS011;69702;44.618;33.604;2024-03-02T04:45:17;24.50;;;13.30;;
80384;SDS011;69702;44.618;33.604;2024-03-02T04:47:43;27.70;;;13.50;;
80384;SDS011;69702;44.618;33.604;2024-03-02T04:50:09;25.23;;;13.20;;
80384;SDS011;69702;44.618;33.604;2024-03-02T04:52:36;35.72;;;16.38;;
80384;SDS011;69702;44.618;33.604;2024-03-02T04:55:02;27.27;;;15.95;;
80384;SDS011;69702;44.618;33.604;2024-03-02T04:57:35;31.75;;;15.68;;
80384;SDS011;69702;44.618;33.604;2024-03-02T05:00:01;30.17;;;16.00;;
80384;SDS011;69702;44.618;33.604;2024-03-02T05:02:32;28.25;;;15.35;;
80384;SDS011;69702;44.618;33.604;2024-03-02T05:04:58;27.73;;;15.95;;
80384;SDS011;69702;44.618;33.604;2024-03-02T05:07:24;27.58;;;14.13;;
80384;SDS011;69702;44.618;33.604;2024-03-02T05:09:50;28.70;;;13.07;;
80384;SDS011;69702;44.618;33.604;2024-03-02T05:12:16;23.23;;;12.50;;
80384;SDS011;69702;44.618;33.604;2024-03-02T05:15:20;21.63;;;13.05;;
80384;SDS011;69702;44.618;33.604;2024-03-02T05:17:47;20.98;;;12.32;;
80384;SDS011;69702;44.618;33.604;2024-03-02T05:20:13;24.05;;;13.90;;
80384;SDS011;69702;44.618;33.604;2024-03-02T05:22:39;26.75;;;14.00;;
80384;SDS011;69702;44.618;33.604;2024-03-02T05:25:05;24.57;;;14.17;;
80384;SDS011;69702;44.618;33.604;2024-03-02T05:27:32;22.90;;;13.20;;
80384;SDS011;69702;44.618;33.604;2024-03-02T05:29:59;24.55;;;13.45;;
80384;SDS011;69702;44.618;33.604;2024-03-02T05:32:26;26.15;;;12.68;;
80384;SDS011;69702;44.618;33.604;2024-03-02T05:34:52;26.70;;;14.05;;
80384;SDS011;69702;44.618;33.604;2024-03-02T05:37:18;34.63;;;14.83;;
80384;SDS011;69702;44.618;33.604;2024-03-02T05:39:45;40.60;;;16.42;;
80384;SDS011;69702;44.618;33.604;2024-03-02T05:42:11;34.72;;;17.73;;
80384;SDS011;69702;44.618;33.604;2024-03-02T05:44:38;34.55;;;17.25;;
80384;SDS011;69702;44.618;33.604;2024-03-02T05:47:04;32.88;;;14.93;;
80384;SDS011;69702;44.618;33.604;2024-03-02T05:49:33;27.25;;;14.68;;
80384;SDS011;69702;44.618;33.604;2024-03-02T05:51:59;34.53;;;14.52;;
80384;SDS011;69702;44.618;33.604;2024-03-02T05:54:25;28.63;;;13.70;;
80384;SDS011;69702;44.618;33.604;2024-03-02T05:56:51;26.33;;;13.27;;
80384;SDS011;69702;44.618;33.604;2024-03-02T05:59:17;28.85;;;13.57;;
80384;SDS011;69702;44.618;33.604;2024-03-02T06:01:44;21.50;;;12.82;;
80384;SDS011;69702;44.618;33.604;2024-03-02T06:04:12;23.80;;;13.25;;
80384;SDS011;69702;44.618;33.604;2024-03-02T06:06:39;24.90;;;12.93;;
80384;SDS011;69702;44.618;33.604;2024-03-02T06:09:06;30.83;;;13.70;;
80384;SDS011;69702;44.618;33.604;2024-03-02T06:11:38;34.78;;;13.95;;
80384;SDS011;69702;44.618;33.604;2024-03-02T06:14:05;25.17;;;12.30;;
80384;SDS011;69702;44.618;33.604;2024-03-02T06:16:32;23.40;;;13.32;;
80384;SDS011;69702;44.618;33.604;2024-03-02T06:18:58;23.77;;;12.73;;
80384;SDS011;69702;44.618;33.604;2024-03-02T06:21:25;20.35;;;12.07;;
80384;SDS011;69702;44.618;33.604;2024-03-02T06:23:51;22.20;;;12.13;;
80384;SDS011;69702;44.618;33.604;2024-03-02T06:26:17;22.65;;;11.90;;
80384;SDS011;69702;44.618;33.604;2024-03-02T06:28:44;21.70;;;11.82;;
80384;SDS011;69702;44.618;33.604;2024-03-02T06:31:10;21.98;;;11.93;;
80384;SDS011;69702;44.618;33.604;2024-03-02T06:33:36;25.23;;;12.48;;
80384;SDS011;69702;44.618;33.604;2024-03-02T06:36:02;23.15;;;12.32;;
80384;SDS011;69702;44.618;33.604;2024-03-02T06:38:29;25.58;;;11.85;;
80384;SDS011;69702;44.618;33.604;2024-03-02T06:40:57;20.80;;;11.82;;
80384;SDS011;69702;44.618;33.604;2024-03-02T06:43:23;26.17;;;12.43;;
80384;SDS011;69702;44.618;33.604;2024-03-02T06:45:50;20.27;;;11.45;;
80384;SDS011;69702;44.618;33.604;2024-03-02T06:48:19;22.25;;;11.85;;
80384;SDS011;69702;44.618;33.604;2024-03-02T06:50:46;17.38;;;11.10;;
80384;SDS011;69702;44.618;33.604;2024-03-02T06:53:15;25.30;;;12.48;;
80384;SDS011;69702;44.618;33.604;2024-03-02T06:55:46;25.35;;;11.88;;
80384;SDS011;69702;44.618;33.604;2024-03-02T06:58:13;21.48;;;10.75;;
80384;SDS011;69702;44.618;33.604;2024-03-02T07:00:44;34.53;;;11.43;;
80384;SDS011;69702;44.618;33.604;2024-03-02T07:03:10;22.15;;;10.50;;
80384;SDS011;69702;44.618;33.604;2024-03-02T07:05:38;18.40;;;11.27;;
80384;SDS011;69702;44.618;33.604;2024-03-02T07:08:04;22.10;;;10.43;;
80384;SDS011;69702;44.618;33.604;2024-03-02T07:10:31;28.70;;;11.90;;
80384;SDS011;69702;44.618;33.604;2024-03-02T07:12:57;23.58;;;10.95;;
80384;SDS011;69702;44.618;33.604;2024-03-02T07:15:23;30.60;;;12.00;;
80384;SDS011;69702;44.618;33.604;2024-03-02T07:17:52;27.15;;;12.75;;
80384;SDS011;69702;44.618;33.604;2024-03-02T07:20:18;23.08;;;10.68;;
80384;SDS011;69702;44.618;33.604;2024-03-02T07:22:44;22.40;;;10.80;;
80384;SDS011;69702;44.618;33.604;2024-03-02T07:25:11;24.45;;;10.98;;
80384;SDS011;69702;44.618;33.604;2024-03-02T07:27:37;19.40;;;9.93;;
80384;SDS011;69702;44.618;33.604;2024-03-02T07:30:03;17.20;;;9.65;;
80384;SDS011;69702;44.618;33.604;2024-03-02T07:32:30;21.67;;;10.02;;
80384;SDS011;69702;44.618;33.604;2024-03-02T07:34:56;18.35;;;9.80;;
80384;SDS011;69702;44.618;33.604;2024-03-02T07:37:23;18.83;;;9.70;;
80384;SDS011;69702;44.618;33.604;2024-03-02T07:39:50;23.05;;;10.00;;
80384;SDS011;69702;44.618;33.604;2024-03-02T07:42:16;21.02;;;9.20;;
80384;SDS011;69702;44.618;33.604;2024-03-02T07:44:46;20.73;;;9.98;;
80384;SDS011;69702;44.618;33.604;2024-03-02T07:47:12;22.52;;;9.38;;
80384;SDS011;69702;44.618;33.604;2024-03-02T07:49:38;16.70;;;10.23;;
80384;SDS011;69702;44.618;33.604;2024-03-02T07:52:04;15.27;;;8.80;;
80384;SDS011;69702;44.618;33.604;2024-03-02T07:54:30;17.10;;;9.68;;
80384;SDS011;69702;44.618;33.604;2024-03-02T07:56:56;20.65;;;9.95;;
80384;SDS011;69702;44.618;33.604;2024-03-02T07:59:23;21.85;;;10.50;;
80384;SDS011;69702;44.618;33.604;2024-03-02T08:01:49;17.15;;;10.48;;
80384;SDS011;69702;44.618;33.604;2024-03-02T08:04:16;19.58;;;10.60;;
80384;SDS011;69702;44.618;33.604;2024-03-02T08:06:42;19.17;;;11.00;;
80384;SDS011;69702;44.618;33.604;2024-03-02T08:09:09;18.75;;;12.68;;
80384;SDS011;69702;44.618;33.604;2024-03-02T08:11:36;24.92;;;12.70;;
80384;SDS011;69702;44.618;33.604;2024-03-02T08:14:03;18.08;;;11.40;;
80384;SDS011;69702;44.618;33.604;2024-03-02T08:16:29;19.83;;;10.98;;
80384;SDS011;69702;44.618;33.604;2024-03-02T08:18:55;25.92;;;15.38;;
80384;SDS011;69702;44.618;33.604;2024-03-02T08:21:24;24.27;;;13.88;;
80384;SDS011;69702;44.618;33.604;2024-03-02T08:23:51;29.52;;;16.25;;
80384;SDS011;69702;44.618;33.604;2024-03-02T08:26:17;36.72;;;18.65;;
80384;SDS011;69702;44.618;33.604;2024-03-02T08:28:43;30.97;;;16.00;;
80384;SDS011;69702;44.618;33.604;2024-03-02T08:31:09;25.30;;;13.82;;
80384;SDS011;69702;44.618;33.604;2024-03-02T08:33:36;23.30;;;14.70;;
80384;SDS011;69702;44.618;33.604;2024-03-02T08:36:02;23.58;;;13.68;;
80384;SDS011;69702;44.618;33.604;2024-03-02T08:38:28;28.73;;;13.65;;
80384;SDS011;69702;44.618;33.604;2024-03-02T08:40:55;25.10;;;13.07;;
80384;SDS011;69702;44.618;33.604;2024-03-02T08:43:21;25.83;;;14.82;;
80384;SDS011;69702;44.618;33.604;2024-03-02T08:45:48;34.38;;;17.38;;
80384;SDS011;69702;44.618;33.604;2024-03-02T08:48:15;30.65;;;15.23;;
80384;SDS011;69702;44.618;33.604;2024-03-02T08:50:41;26.88;;;16.58;;
80384;SDS011;69702;44.618;33.604;2024-03-02T08:53:07;23.08;;;15.38;;
80384;SDS011;69702;44.618;33.604;2024-03-02T08:55:33;31.75;;;15.65;;
80384;SDS011;69702;44.618;33.604;2024-03-02T08:57:59;27.60;;;14.45;;
80384;SDS011;69702;44.618;33.604;2024-03-02T09:00:25;23.45;;;15.98;;
80384;SDS011;69702;44.618;33.604;2024-03-02T09:02:51;26.42;;;17.13;;
80384;SDS011;69702;44.618;33.604;2024-03-02T09:05:17;26.85;;;14.93;;
80384;SDS011;69702;44.618;33.604;2024-03-02T09:07:43;23.95;;;16.92;;
80384;SDS011;69702;44.618;33.604;2024-03-02T09:10:09;25.25;;;16.38;;
80384;SDS011;69702;44.618;33.604;2024-03-02T09:12:36;22.55;;;16.67;;
80384;SDS011;69702;44.618;33.604;2024-03-02T09:15:03;30.33;;;17.05;;
80384;SDS011;69702;44.618;33.604;2024-03-02T09:17:30;22.33;;;15.20;;
80384;SDS011;69702;44.618;33.604;2024-03-02T09:19:56;24.85;;;15.93;;
80384;SDS011;69702;44.618;33.604;2024-03-02T09:22:23;26.23;;;15.88;;
80384;SDS011;69702;44.618;33.604;2024-03-02T09:24:48;24.60;;;16.33;;
80384;SDS011;69702;44.618;33.604;2024-03-02T09:27:15;24.55;;;15.68;;
80384;SDS011;69702;44.618;33.604;2024-03-02T09:29:41;22.60;;;14.73;;
80384;SDS011;69702;44.618;33.604;2024-03-02T09:32:07;25.20;;;16.10;;
80384;SDS011;69702;44.618;33.604;2024-03-02T09:34:34;25.88;;;15.77;;
80384;SDS011;69702;44.618;33.604;2024-03-02T09:37:00;28.90;;;15.43;;
80384;SDS011;69702;44.618;33.604;2024-03-02T09:39:26;33.33;;;16.42;;
80384;SDS011;69702;44.618;33.604;2024-03-02T09:41:52;20.30;;;15.23;;
80384;SDS011;69702;44.618;33.604;2024-03-02T09:44:19;22.17;;;15.18;;
80384;SDS011;69702;44.618;33.604;2024-03-02T09:46:48;21.33;;;15.05;;
80384;SDS011;69702;44.618;33.604;2024-03-02T09:49:15;28.88;;;14.15;;
80384;SDS011;69702;44.618;33.604;2024-03-02T09:51:44;26.27;;;14.95;;
80384;SDS011;69702;44.618;33.604;2024-03-02T09:54:12;23.93;;;14.17;;
80384;SDS011;69702;44.618;33.604;2024-03-02T09:56:39;31.38;;;13.63;;
80384;SDS011;69702;44.618;33.604;2024-03-02T09:59:05;18.55;;;12.38;;
80384;SDS011;69702;44.618;33.604;2024-03-02T10:01:31;26.95;;;14.70;;
80384;SDS011;69702;44.618;33.604;2024-03-02T10:03:58;24.73;;;14.20;;
80384;SDS011;69702;44.618;33.604;2024-03-02T10:06:25;21.97;;;13.53;;
80384;SDS011;69702;44.618;33.604;2024-03-02T10:08:53;21.00;;;14.25;;
80384;SDS011;69702;44.618;33.604;2024-03-02T10:11:33;23.42;;;14.02;;
80384;SDS011;69702;44.618;33.604;2024-03-02T10:14:12;28.08;;;14.43;;
80384;SDS011;69702;44.618;33.604;2024-03-02T10:16:39;20.75;;;14.30;;
80384;SDS011;69702;44.618;33.604;2024-03-02T10:21:50;22.95;;;12.98;;
80384;SDS011;69702;44.618;33.604;2024-03-02T10:24:21;24.10;;;14.15;;
80384;SDS011;69702;44.618;33.604;2024-03-02T10:26:48;21.52;;;14.38;;
80384;SDS011;69702;44.618;33.604;2024-03-02T10:29:15;22.45;;;14.57;;
80384;SDS011;69702;44.618;33.604;2024-03-02T10:31:42;23.00;;;15.07;;
80384;SDS011;69702;44.618;33.604;2024-03-02T10:34:10;25.15;;;14.05;;
80384;SDS011;69702;44.618;33.604;2024-03-02T10:36:37;18.48;;;10.85;;
80384;SDS011;69702;44.618;33.604;2024-03-02T10:39:04;15.07;;;9.50;;
80384;SDS011;69702;44.618;33.604;2024-03-02T10:41:34;17.05;;;12.85;;
80384;SDS011;69702;44.618;33.604;2024-03-02T10:44:02;17.07;;;10.37;;
80384;SDS011;69702;44.618;33.604;2024-03-02T10:46:30;14.45;;;10.05;;
80384;SDS011;69702;44.618;33.604;2024-03-02T10:48:57;19.30;;;11.63;;
80384;SDS011;69702;44.618;33.604;2024-03-02T10:51:27;15.23;;;12.05;;
80384;SDS011;69702;44.618;33.604;2024-03-02T10:54:00;20.45;;;15.07;;
80384;SDS011;69702;44.618;33.604;2024-03-02T10:56:40;17.50;;;11.37;;
80384;SDS011;69702;44.618;33.604;2024-03-02T11:01:46;23.02;;;16.00;;
80384;SDS011;69702;44.618;33.604;2024-03-02T11:04:15;18.95;;;13.98;;
80384;SDS011;69702;44.618;33.604;2024-03-02T11:06:49;18.13;;;12.65;;
80384;SDS011;69702;44.618;33.604;2024-03-02T11:09:16;17.17;;;11.03;;
80384;SDS011;69702;44.618;33.604;2024-03-02T11:11:46;19.65;;;14.48;;
80384;SDS011;69702;44.618;33.604;2024-03-02T11:14:18;17.67;;;11.25;;
80384;SDS011;69702;44.618;33.604;2024-03-02T11:16:48;23.48;;;18.90;;
80384;SDS011;69702;44.618;33.604;2024-03-02T11:19:15;15.50;;;12.65;;
80384;SDS011;69702;44.618;33.604;2024-03-02T11:21:42;20.43;;;13.20;;
80384;SDS011;69702;44.618;33.604;2024-03-02T11:26:47;18.52;;;12.90;;
80384;SDS011;69702;44.618;33.604;2024-03-02T11:32:01;19.35;;;13.95;;
80384;SDS011;69702;44.618;33.604;2024-03-02T11:34:31;17.20;;;10.80;;
80384;SDS011;69702;44.618;33.604;2024-03-02T11:36:59;18.70;;;11.70;;
80384;SDS011;69702;44.618;33.604;2024-03-02T11:39:27;18.80;;;12.45;;
80384;SDS011;69702;44.618;33.604;2024-03-02T11:41:55;17.48;;;11.88;;
80384;SDS011;69702;44.618;33.604;2024-03-02T11:44:26;17.92;;;11.25;;
80384;SDS011;69702;44.618;33.604;2024-03-02T11:46:59;20.60;;;12.43;;
80384;SDS011;69702;44.618;33.604;2024-03-02T11:49:38;19.38;;;11.93;;
80384;SDS011;69702;44.618;33.604;2024-03-02T11:52:05;18.50;;;11.93;;
80384;SDS011;69702;44.618;33.604;2024-03-02T11:54:36;17.60;;;10.90;;
80384;SDS011;69702;44.618;33.604;2024-03-02T11:57:05;19.40;;;11.48;;
80384;SDS011;69702;44.618;33.604;2024-03-02T11:59:32;18.23;;;11.30;;
80384;SDS011;69702;44.618;33.604;2024-03-02T12:01:58;18.95;;;10.55;;
80384;SDS011;69702;44.618;33.604;2024-03-02T12:04:25;24.73;;;11.05;;
80384;SDS011;69702;44.618;33.604;2024-03-02T12:07:01;17.98;;;11.23;;
80384;SDS011;69702;44.618;33.604;2024-03-02T12:09:27;20.55;;;10.75;;
80384;SDS011;69702;44.618;33.604;2024-03-02T12:12:03;16.93;;;10.27;;
80384;SDS011;69702;44.618;33.604;2024-03-02T12:14:33;20.02;;;10.57;;
80384;SDS011;69702;44.618;33.604;2024-03-02T12:17:01;19.50;;;11.23;;
80384;SDS011;69702;44.618;33.604;2024-03-02T12:19:28;19.15;;;11.48;;
80384;SDS011;69702;44.618;33.604;2024-03-02T12:21:59;20.20;;;11.52;;
80384;SDS011;69702;44.618;33.604;2024-03-02T12:24:29;18.77;;;11.10;;
80384;SDS011;69702;44.618;33.604;2024-03-02T12:26:55;22.90;;;12.70;;
80384;SDS011;69702;44.618;33.604;2024-03-02T12:29:22;25.75;;;14.45;;
80384;SDS011;69702;44.618;33.604;2024-03-02T12:31:50;20.27;;;12.18;;
80384;SDS011;69702;44.618;33.604;2024-03-02T12:34:18;24.63;;;12.95;;
80384;SDS011;69702;44.618;33.604;2024-03-02T12:36:47;20.50;;;13.20;;
80384;SDS011;69702;44.618;33.604;2024-03-02T12:39:16;18.55;;;10.43;;
80384;SDS011;69702;44.618;33.604;2024-03-02T12:41:42;18.27;;;10.60;;
80384;SDS011;69702;44.618;33.604;2024-03-02T12:44:08;16.88;;;10.20;;
80384;SDS011;69702;44.618;33.604;2024-03-02T12:46:35;19.48;;;10.63;;
80384;SDS011;69702;44.618;33.604;2024-03-02T12:49:08;19.57;;;12.43;;
80384;SDS011;69702;44.618;33.604;2024-03-02T12:51:36;18.75;;;9.48;;
80384;SDS011;69702;44.618;33.604;2024-03-02T12:54:03;17.65;;;10.18;;
80384;SDS011;69702;44.618;33.604;2024-03-02T12:56:30;20.60;;;12.45;;
80384;SDS011;69702;44.618;33.604;2024-03-02T12:58:57;21.60;;;11.90;;
80384;SDS011;69702;44.618;33.604;2024-03-02T13:01:24;16.47;;;9.07;;
80384;SDS011;69702;44.618;33.604;2024-03-02T13:03:50;16.63;;;10.20;;
80384;SDS011;69702;44.618;33.604;2024-03-02T13:06:17;17.60;;;10.75;;
80384;SDS011;69702;44.618;33.604;2024-03-02T13:08:44;17.08;;;9.13;;
80384;SDS011;69702;44.618;33.604;2024-03-02T13:11:11;15.68;;;9.20;;
80384;SDS011;69702;44.618;33.604;2024-03-02T13:13:38;15.77;;;9.17;;
80384;SDS011;69702;44.618;33.604;2024-03-02T13:16:10;15.25;;;9.80;;
80384;SDS011;69702;44.618;33.604;2024-03-02T13:18:36;20.98;;;11.23;;
80384;SDS011;69702;44.618;33.604;2024-03-02T13:21:04;16.75;;;9.65;;
80384;SDS011;69702;44.618;33.604;2024-03-02T13:23:30;17.30;;;9.95;;
80384;SDS011;69702;44.618;33.604;2024-03-02T13:25:56;14.40;;;8.80;;
80384;SDS011;69702;44.618;33.604;2024-03-02T13:28:24;14.60;;;8.75;;
80384;SDS011;69702;44.618;33.604;2024-03-02T13:30:50;15.45;;;9.65;;
80384;SDS011;69702;44.618;33.604;2024-03-02T13:33:17;15.55;;;8.98;;
80384;SDS011;69702;44.618;33.604;2024-03-02T13:35:49;13.13;;;9.32;;
80384;SDS011;69702;44.618;33.604;2024-03-02T13:38:16;15.50;;;8.17;;
80384;SDS011;69702;44.618;33.604;2024-03-02T13:40:46;14.98;;;8.40;;
80384;SDS011;69702;44.618;33.604;2024-03-02T13:43:13;15.68;;;8.80;;
80384;SDS011;69702;44.618;33.604;2024-03-02T13:45:39;18.02;;;9.43;;
80384;SDS011;69702;44.618;33.604;2024-03-02T13:48:05;16.33;;;9.02;;
80384;SDS011;69702;44.618;33.604;2024-03-02T13:50:32;17.57;;;8.80;;
80384;SDS011;69702;44.618;33.604;2024-03-02T13:52:58;14.57;;;8.20;;
80384;SDS011;69702;44.618;33.604;2024-03-02T13:55:24;14.57;;;8.48;;
80384;SDS011;69702;44.618;33.604;2024-03-02T13:57:50;15.93;;;8.25;;
80384;SDS011;69702;44.618;33.604;2024-03-02T14:00:17;16.85;;;8.70;;
80384;SDS011;69702;44.618;33.604;2024-03-02T14:02:47;17.50;;;8.90;;
80384;SDS011;69702;44.618;33.604;2024-03-02T14:05:16;14.13;;;8.45;;
80384;SDS011;69702;44.618;33.604;2024-03-02T14:07:42;17.27;;;8.27;;
80384;SDS011;69702;44.618;33.604;2024-03-02T14:10:12;15.73;;;8.80;;
80384;SDS011;69702;44.618;33.604;2024-03-02T14:12:39;15.38;;;9.32;;
80384;SDS011;69702;44.618;33.604;2024-03-02T14:15:06;16.00;;;8.87;;
80384;SDS011;69702;44.618;33.604;2024-03-02T14:17:32;19.35;;;8.77;;
80384;SDS011;69702;44.618;33.604;2024-03-02T14:19:59;26.02;;;9.40;;
80384;SDS011;69702;44.618;33.604;2024-03-02T14:22:25;23.40;;;10.60;;
80384;SDS011;69702;44.618;33.604;2024-03-02T14:24:52;19.55;;;10.57;;
80384;SDS011;69702;44.618;33.604;2024-03-02T14:27:18;18.20;;;8.40;;
80384;SDS011;69702;44.618;33.604;2024-03-02T14:29:44;21.20;;;9.93;;